Terminal Aerodrome Forecast
Issued by NWS

Home | Current Version | Previous Version | Text Only | Print | Product List | Glossary On
Versions: 1 2 3 4 5 6 7 8 9 10 11 12 13 14 15 16 17 18 19 20 21 22 23 24 25 26 27 28 29 30 31 32 33 34
000
FTUS42 KJAX 040350 AAC
TAFVQQ
TAF AMD
KVQQ 040350Z 0404/0424 23006KT P6SM VCSH SCT015 OVC070
     FM040900 20004KT 6SM BR SCT010 BKN020
     FM041600 25007KT P6SM VCTS BKN035CB BKN250=

USA.gov is the U.S. government's official web portal to all federal, state and local government web resources and services.